Time;durP1;ratioP1;P1;durP2;ratioP2;P2;SDS_P1;SDS_P2;PMS_P1;PMS_P2;Temp;Humidity;BMP_temperature;BMP_pressure;BME280_temperature;BME280_humidity;BME280_pressure;Samples;Min_cycle;Max_cycle;Signal;HPM_P1;HPM_P2
2022/10/09 00:02:01;;;;;;;;;;;23.30;54.90;;;;;;1558778;75;692;-69
2022/10/09 00:04:04;;;;;;;;;;;23.20;55.00;;;;;;1565104;75;733;-69
2022/10/09 00:06:07;;;;;;;;;;;23.20;55.00;;;;;;1558260;74;1099;-69
2022/10/09 00:08:08;;;;;;;;;;;23.20;55.10;;;;;;1565202;75;711;-70
2022/10/09 00:10:10;;;;;;;;;;;23.20;55.20;;;;;;1557570;75;733;-72
2022/10/09 00:12:12;;;;;;;;;;;23.30;55.20;;;;;;1559186;75;607;-72
2022/10/09 00:14:14;;;;;;;;;;;23.20;55.10;;;;;;1552563;75;715;-71
2022/10/09 00:16:16;;;;;;;;;;;23.30;55.20;;;;;;1566545;75;1185;-71
2022/10/09 00:18:18;;;;;;;;;;;23.10;55.40;;;;;;1557278;75;759;-72
2022/10/09 00:20:20;;;;;;;;;;;23.20;55.40;;;;;;1560073;75;1944;-69
2022/10/09 00:22:22;;;;;;;;;;;23.20;55.30;;;;;;1558951;74;827;-69
2022/10/09 00:24:24;;;;;;;;;;;23.20;55.40;;;;;;1557916;75;818;-68
2022/10/09 00:26:26;;;;;;;;;;;23.30;55.30;;;;;;1555168;74;1168;-70
2022/10/09 00:28:28;;;;;;;;;;;23.20;55.20;;;;;;1547965;74;734;-69
2022/10/09 00:30:30;;;;;;;;;;;23.20;55.30;;;;;;1548531;75;742;-69
2022/10/09 00:32:32;;;;;;;;;;;23.20;55.50;;;;;;1589512;74;729;-70
2022/10/09 00:34:34;;;;;;;;;;;23.10;55.50;;;;;;1588000;74;822;-69
2022/10/09 00:36:36;;;;;;;;;;;23.10;55.50;;;;;;1576845;74;1140;-70
2022/10/09 00:38:38;;;;;;;;;;;23.10;55.70;;;;;;1559410;75;641;-70
2022/10/09 00:40:39;;;;;;;;;;;23.00;55.70;;;;;;1591482;74;1938;-70
2022/10/09 00:42:44;;;;;;;;;;;23.10;55.80;;;;;;1557639;75;774;-70
2022/10/09 00:44:56;;;;;;;;;;;23.00;55.90;;;;;;1572228;74;1694;-70
2022/10/09 00:46:58;;;;;;;;;;;22.90;56.00;;;;;;1577788;74;1128;-69
2022/10/09 00:49:10;;;;;;;;;;;23.00;56.00;;;;;;1584438;74;725;-70
2022/10/09 00:51:12;;;;;;;;;;;22.90;56.20;;;;;;1564218;74;703;-71
2022/10/09 00:53:15;;;;;;;;;;;23.00;56.30;;;;;;1573821;74;754;-70
2022/10/09 00:55:17;;;;;;;;;;;22.90;56.20;;;;;;1574437;74;764;-70
2022/10/09 00:57:19;;;;;;;;;;;22.90;56.20;;;;;;1570101;74;1146;-71
2022/10/09 00:59:21;;;;;;;;;;;22.90;56.20;;;;;;1585863;74;1933;-70
2022/10/09 01:01:22;;;;;;;;;;;22.90;56.20;;;;;;1579452;74;716;-70
2022/10/09 01:03:24;;;;;;;;;;;22.90;56.30;;;;;;1582156;74;685;-70
2022/10/09 01:05:28;;;;;;;;;;;23.00;56.30;;;;;;1584456;74;1136;-70
2022/10/09 01:07:31;;;;;;;;;;;22.90;56.30;;;;;;1579924;74;1812;-69
2022/10/09 01:09:44;;;;;;;;;;;22.90;56.10;;;;;;1583559;74;998;-69
2022/10/09 01:11:47;;;;;;;;;;;23.00;56.10;;;;;;1582275;74;657;-71
2022/10/09 01:13:51;;;;;;;;;;;23.00;56.20;;;;;;1569664;74;1927;-70
2022/10/09 01:15:54;;;;;;;;;;;23.00;56.00;;;;;;1577411;74;1824;-70
2022/10/09 01:18:14;;;;;;;;;;;23.00;56.10;;;;;;1592656;74;866;-69
2022/10/09 01:20:36;;;;;;;;;;;22.90;56.20;;;;;;1577057;74;1926;-70
2022/10/09 01:22:39;;;;;;;;;;;23.00;56.20;;;;;;1576547;74;2301;-70
2022/10/09 01:24:41;;;;;;;;;;;22.90;56.20;;;;;;1588800;74;723;-71
2022/10/09 01:26:56;;;;;;;;;;;23.00;56.10;;;;;;1567940;74;1162;-69
2022/10/09 01:28:58;;;;;;;;;;;23.00;56.00;;;;;;1567634;74;716;-69
2022/10/09 01:31:01;;;;;;;;;;;23.00;56.10;;;;;;1574819;74;743;-70
2022/10/09 01:33:03;;;;;;;;;;;23.00;56.30;;;;;;1568395;74;776;-69
2022/10/09 01:35:05;;;;;;;;;;;22.90;56.30;;;;;;1573846;74;763;-69
2022/10/09 01:37:07;;;;;;;;;;;22.90;56.50;;;;;;1563391;74;1149;-69
2022/10/09 01:39:09;;;;;;;;;;;22.90;56.50;;;;;;1549050;75;771;-68
2022/10/09 01:41:11;;;;;;;;;;;22.90;56.50;;;;;;1570324;74;1927;-70
2022/10/09 01:43:13;;;;;;;;;;;22.80;56.50;;;;;;1580469;74;795;-70
2022/10/09 01:45:15;;;;;;;;;;;22.90;56.70;;;;;;1595294;74;737;-69
2022/10/09 01:47:17;;;;;;;;;;;22.90;56.80;;;;;;1554256;74;1100;-72
2022/10/09 01:49:24;;;;;;;;;;;22.80;56.70;;;;;;1546633;75;650;-70
2022/10/09 01:51:27;;;;;;;;;;;22.80;56.70;;;;;;1548876;75;734;-70
2022/10/09 01:53:28;;;;;;;;;;;22.90;56.90;;;;;;1575319;74;819;-70
2022/10/09 01:55:35;;;;;;;;;;;22.80;56.70;;;;;;1561263;75;1097;-67
2022/10/09 01:57:38;;;;;;;;;;;22.80;56.70;;;;;;1559534;75;714;-70
2022/10/09 01:59:41;;;;;;;;;;;22.70;56.70;;;;;;1561328;75;1902;-70
2022/10/09 02:01:43;;;;;;;;;;;22.80;56.70;;;;;;1564813;75;682;-70
2022/10/09 02:03:46;;;;;;;;;;;22.80;56.70;;;;;;1571724;75;702;-70
2022/10/09 02:05:48;;;;;;;;;;;22.80;56.80;;;;;;1568912;74;1188;-70
2022/10/09 02:07:50;;;;;;;;;;;22.80;56.80;;;;;;1571826;74;709;-68
2022/10/09 02:09:52;;;;;;;;;;;22.70;56.80;;;;;;1565789;74;784;-70
2022/10/09 02:11:54;;;;;;;;;;;22.90;56.80;;;;;;1567396;75;772;-70
2022/10/09 02:13:56;;;;;;;;;;;22.90;56.60;;;;;;1560470;75;705;-69
2022/10/09 02:16:02;;;;;;;;;;;22.90;56.50;;;;;;1549703;74;1217;-69
2022/10/09 02:18:11;;;;;;;;;;;23.00;56.40;;;;;;1563840;75;1968;-69
2022/10/09 02:20:21;;;;;;;;;;;23.00;56.30;;;;;;1560626;74;1931;-70
2022/10/09 02:22:27;;;;;;;;;;;23.00;56.30;;;;;;1564015;75;705;-70
2022/10/09 02:24:29;;;;;;;;;;;22.90;56.30;;;;;;1553912;74;2012;-70
2022/10/09 02:26:30;;;;;;;;;;;23.00;56.30;;;;;;1569315;75;1112;-70
2022/10/09 02:28:32;;;;;;;;;;;22.90;56.30;;;;;;1525841;76;786;-70
2022/10/09 02:30:45;;;;;;;;;;;22.90;56.30;;;;;;1557378;75;705;-71
2022/10/09 02:32:48;;;;;;;;;;;22.90;56.30;;;;;;1565136;75;740;-68
2022/10/09 02:34:51;;;;;;;;;;;23.00;56.30;;;;;;1564088;75;1951;-69
2022/10/09 02:36:52;;;;;;;;;;;22.90;56.30;;;;;;1566640;74;1170;-69
2022/10/09 02:38:54;;;;;;;;;;;22.90;56.30;;;;;;1577255;74;753;-68
2022/10/09 02:40:57;;;;;;;;;;;22.90;56.30;;;;;;1536127;75;1925;-70
2022/10/09 02:43:00;;;;;;;;;;;22.90;56.40;;;;;;1577623;74;677;-68
2022/10/09 02:45:01;;;;;;;;;;;22.90;56.50;;;;;;1592425;74;795;-68
2022/10/09 02:47:03;;;;;;;;;;;23.00;56.30;;;;;;1574592;73;1109;-68
2022/10/09 02:49:05;;;;;;;;;;;23.00;56.10;;;;;;1550657;75;742;-67
2022/10/09 02:51:07;;;;;;;;;;;23.00;56.10;;;;;;1570778;74;1000;-67
2022/10/09 02:53:09;;;;;;;;;;;23.00;56.00;;;;;;1540573;75;720;-66
2022/10/09 02:55:11;;;;;;;;;;;23.00;56.10;;;;;;1547531;75;744;-69
2022/10/09 02:57:13;;;;;;;;;;;22.90;56.30;;;;;;1584782;74;1107;-70
2022/10/09 02:59:15;;;;;;;;;;;23.00;55.90;;;;;;1577886;74;694;-71
2022/10/09 03:01:17;;;;;;;;;;;23.00;55.90;;;;;;1549987;75;1936;-71
2022/10/09 03:03:18;;;;;;;;;;;22.90;55.90;;;;;;1564935;75;741;-70
2022/10/09 03:05:20;;;;;;;;;;;23.00;56.00;;;;;;1563689;75;637;-70
2022/10/09 03:07:22;;;;;;;;;;;22.90;56.20;;;;;;1564445;74;1148;-67
2022/10/09 03:09:24;;;;;;;;;;;22.90;56.30;;;;;;1548517;75;790;-70
2022/10/09 03:11:26;;;;;;;;;;;22.90;56.30;;;;;;1569724;74;760;-69
2022/10/09 03:13:28;;;;;;;;;;;22.90;56.40;;;;;;1543443;75;918;-70
2022/10/09 03:15:31;;;;;;;;;;;22.80;56.30;;;;;;1564536;75;1195;-72
2022/10/09 03:17:33;;;;;;;;;;;22.70;56.40;;;;;;1565428;75;1312;-71
2022/10/09 03:19:35;;;;;;;;;;;22.80;56.50;;;;;;1554920;75;750;-71
2022/10/09 03:21:37;;;;;;;;;;;22.80;56.50;;;;;;1557338;75;1943;-71
2022/10/09 03:23:39;;;;;;;;;;;22.80;56.60;;;;;;1558341;75;783;-70
2022/10/09 03:25:41;;;;;;;;;;;22.70;56.60;;;;;;1567262;74;1175;-70
2022/10/09 03:27:43;;;;;;;;;;;22.80;56.60;;;;;;1553822;75;710;-69
2022/10/09 03:29:44;;;;;;;;;;;22.80;56.70;;;;;;1564241;75;658;-70
2022/10/09 03:31:46;;;;;;;;;;;22.70;56.60;;;;;;1563416;76;751;-70
2022/10/09 03:33:48;;;;;;;;;;;22.80;56.80;;;;;;1563763;75;722;-70
2022/10/09 03:35:50;;;;;;;;;;;22.70;56.80;;;;;;1563052;75;1141;-70
2022/10/09 03:37:52;;;;;;;;;;;22.70;56.80;;;;;;1565688;75;828;-70
2022/10/09 03:39:54;;;;;;;;;;;22.70;56.80;;;;;;1562462;75;783;-70
2022/10/09 03:41:56;;;;;;;;;;;22.70;56.90;;;;;;1565293;75;1946;-70
2022/10/09 03:43:58;;;;;;;;;;;22.70;56.90;;;;;;1552818;75;729;-69
2022/10/09 03:46:01;;;;;;;;;;;22.70;56.90;;;;;;1559767;75;1166;-69
2022/10/09 03:48:03;;;;;;;;;;;22.60;56.90;;;;;;1561679;75;1823;-70
2022/10/09 03:50:05;;;;;;;;;;;22.60;56.90;;;;;;1555072;75;669;-69
2022/10/09 03:52:07;;;;;;;;;;;22.70;57.00;;;;;;1558348;75;774;-69
2022/10/09 03:54:09;;;;;;;;;;;22.70;57.00;;;;;;1570656;75;812;-69
2022/10/09 03:56:11;;;;;;;;;;;22.60;57.00;;;;;;1561246;75;1144;-71
2022/10/09 03:58:13;;;;;;;;;;;22.60;56.90;;;;;;1563651;75;789;-70
2022/10/09 04:00:15;;;;;;;;;;;22.70;57.00;;;;;;1552279;75;1962;-70
2022/10/09 04:02:17;;;;;;;;;;;22.80;57.10;;;;;;1559954;75;694;-72
2022/10/09 04:04:19;;;;;;;;;;;22.60;57.00;;;;;;1561419;75;798;-70
2022/10/09 04:06:21;;;;;;;;;;;22.70;56.90;;;;;;1561322;75;1138;-69
2022/10/09 04:08:23;;;;;;;;;;;22.70;57.00;;;;;;1569279;75;713;-69
2022/10/09 04:10:24;;;;;;;;;;;22.70;56.90;;;;;;1551637;75;681;-70
2022/10/09 04:12:26;;;;;;;;;;;22.70;57.00;;;;;;1555240;75;796;-70
2022/10/09 04:14:28;;;;;;;;;;;22.80;56.90;;;;;;1560638;75;735;-69
2022/10/09 04:16:30;;;;;;;;;;;22.80;57.10;;;;;;1563781;74;1113;-69
2022/10/09 04:18:32;;;;;;;;;;;22.70;57.00;;;;;;1560157;75;785;-69
2022/10/09 04:20:34;;;;;;;;;;;22.70;57.10;;;;;;1555904;75;1937;-70
2022/10/09 04:22:36;;;;;;;;;;;22.60;57.10;;;;;;1552433;75;710;-70
2022/10/09 04:24:37;;;;;;;;;;;22.70;57.10;;;;;;1557518;75;705;-71
2022/10/09 04:26:39;;;;;;;;;;;22.60;57.00;;;;;;1584412;73;1161;-70
2022/10/09 04:28:42;;;;;;;;;;;22.60;57.00;;;;;;1560302;75;769;-69
2022/10/09 04:30:44;;;;;;;;;;;22.60;57.10;;;;;;1559637;75;714;-70
2022/10/09 04:32:46;;;;;;;;;;;22.60;57.10;;;;;;1562037;75;721;-70
2022/10/09 04:34:48;;;;;;;;;;;22.60;57.10;;;;;;1564977;75;740;-70
2022/10/09 04:36:50;;;;;;;;;;;22.70;57.20;;;;;;1559807;75;1138;-70
2022/10/09 04:38:52;;;;;;;;;;;22.60;57.20;;;;;;1565033;74;723;-69
2022/10/09 04:41:01;;;;;;;;;;;22.60;57.30;;;;;;1542022;75;1948;-70
2022/10/09 04:43:02;;;;;;;;;;;22.60;57.30;;;;;;1577971;74;766;-70
2022/10/09 04:45:05;;;;;;;;;;;22.50;57.30;;;;;;1574890;74;770;-71
2022/10/09 04:47:07;;;;;;;;;;;22.60;57.30;;;;;;1563396;74;1140;-69
2022/10/09 04:49:12;;;;;;;;;;;22.60;57.40;;;;;;1585595;74;773;-69
2022/10/09 04:51:14;;;;;;;;;;;22.60;57.30;;;;;;1541720;75;835;-70
2022/10/09 04:53:16;;;;;;;;;;;22.60;57.30;;;;;;1552923;75;748;-69
2022/10/09 04:55:18;;;;;;;;;;;22.60;57.30;;;;;;1583460;74;745;-70
2022/10/09 04:57:20;;;;;;;;;;;22.60;57.40;;;;;;1553531;75;1141;-71
2022/10/09 04:59:22;;;;;;;;;;;22.60;57.40;;;;;;1573528;74;794;-69
2022/10/09 05:01:25;;;;;;;;;;;22.60;57.40;;;;;;1555670;75;1931;-69
2022/10/09 05:03:26;;;;;;;;;;;22.60;57.40;;;;;;1544644;75;757;-69
2022/10/09 05:05:28;;;;;;;;;;;22.60;57.50;;;;;;1586462;73;1145;-69
2022/10/09 05:07:30;;;;;;;;;;;22.60;57.50;;;;;;1544732;75;732;-70
2022/10/09 05:09:32;;;;;;;;;;;22.60;57.40;;;;;;1548894;75;730;-70
2022/10/09 05:11:34;;;;;;;;;;;22.60;57.40;;;;;;1565251;75;711;-70
2022/10/09 05:13:37;;;;;;;;;;;22.60;57.50;;;;;;1573363;75;748;-71
2022/10/09 05:15:38;;;;;;;;;;;22.60;57.50;;;;;;1569365;74;1211;-71
2022/10/09 05:17:40;;;;;;;;;;;22.60;57.60;;;;;;1573280;75;722;-70
2022/10/09 05:19:42;;;;;;;;;;;22.60;57.60;;;;;;1569585;75;717;-71
2022/10/09 05:21:44;;;;;;;;;;;22.60;57.60;;;;;;1552379;75;1922;-72
2022/10/09 05:23:46;;;;;;;;;;;22.60;57.60;;;;;;1559473;75;738;-71
2022/10/09 05:25:55;;;;;;;;;;;22.60;57.70;;;;;;1554663;75;1125;-71
2022/10/09 05:27:56;;;;;;;;;;;22.60;57.70;;;;;;1546590;75;782;-70
2022/10/09 05:29:58;;;;;;;;;;;22.50;57.70;;;;;;1561966;75;754;-69
2022/10/09 05:32:00;;;;;;;;;;;22.60;57.70;;;;;;1562150;75;706;-70
2022/10/09 05:34:02;;;;;;;;;;;22.60;57.70;;;;;;1581716;74;784;-69
2022/10/09 05:36:04;;;;;;;;;;;22.60;57.60;;;;;;1544356;75;1193;-69
2022/10/09 05:38:06;;;;;;;;;;;22.60;57.50;;;;;;1568044;74;691;-69
2022/10/09 05:40:08;;;;;;;;;;;22.70;57.50;;;;;;1540521;75;727;-69
2022/10/09 05:42:10;;;;;;;;;;;22.70;57.60;;;;;;1547833;75;1907;-71
2022/10/09 05:44:12;;;;;;;;;;;22.80;57.30;;;;;;1576369;74;779;-71
2022/10/09 05:46:18;;;;;;;;;;;22.80;57.10;;;;;;1535365;75;1164;-71
2022/10/09 05:48:19;;;;;;;;;;;22.80;56.90;;;;;;1558358;75;703;-70
2022/10/09 05:50:21;;;;;;;;;;;22.80;56.90;;;;;;1595548;74;795;-71
2022/10/09 05:52:23;;;;;;;;;;;22.70;56.80;;;;;;1583132;73;786;-70
2022/10/09 05:54:26;;;;;;;;;;;22.70;56.90;;;;;;1577048;74;697;-70
2022/10/09 05:56:35;;;;;;;;;;;22.70;56.80;;;;;;1542199;75;1156;-71
2022/10/09 05:58:36;;;;;;;;;;;22.70;56.80;;;;;;1549789;75;780;-71
2022/10/09 06:00:38;;;;;;;;;;;22.70;56.80;;;;;;1568883;75;723;-71
2022/10/09 06:02:40;;;;;;;;;;;22.60;56.70;;;;;;1572438;75;1924;-71
2022/10/09 06:04:42;;;;;;;;;;;22.60;56.70;;;;;;1559285;74;702;-71
2022/10/09 06:06:46;;;;;;;;;;;22.60;56.70;;;;;;1570533;75;1166;-71
2022/10/09 06:08:47;;;;;;;;;;;22.60;56.60;;;;;;1574586;74;732;-71
2022/10/09 06:10:49;;;;;;;;;;;22.50;56.60;;;;;;1545598;75;957;-71
2022/10/09 06:12:51;;;;;;;;;;;22.50;56.60;;;;;;1552640;75;726;-70
2022/10/09 06:14:53;;;;;;;;;;;22.50;56.60;;;;;;1582972;74;723;-71
2022/10/09 06:16:55;;;;;;;;;;;22.50;56.60;;;;;;1554641;75;1194;-69
2022/10/09 06:18:57;;;;;;;;;;;22.50;56.60;;;;;;1575341;74;666;-71
2022/10/09 06:20:59;;;;;;;;;;;22.50;56.60;;;;;;1556248;75;730;-71
2022/10/09 06:23:01;;;;;;;;;;;22.60;56.50;;;;;;1571416;75;1925;-71
2022/10/09 06:25:03;;;;;;;;;;;22.50;56.50;;;;;;1569042;74;732;-71
2022/10/09 06:27:05;;;;;;;;;;;22.50;56.50;;;;;;1548277;75;1151;-72
2022/10/09 06:29:08;;;;;;;;;;;22.50;56.50;;;;;;1564748;75;762;-70
2022/10/09 06:31:14;;;;;;;;;;;22.50;56.40;;;;;;1573166;75;780;-70
2022/10/09 06:33:15;;;;;;;;;;;22.50;56.40;;;;;;1567411;75;800;-69
2022/10/09 06:35:17;;;;;;;;;;;22.50;56.40;;;;;;1566567;75;763;-70
2022/10/09 06:37:19;;;;;;;;;;;22.50;56.30;;;;;;1565615;75;1070;-70
2022/10/09 06:39:21;;;;;;;;;;;22.40;56.10;;;;;;1568757;75;787;-71
2022/10/09 06:41:24;;;;;;;;;;;22.50;56.30;;;;;;1569080;75;1930;-70
2022/10/09 06:43:25;;;;;;;;;;;22.50;56.20;;;;;;1563067;75;713;-70
2022/10/09 06:45:27;;;;;;;;;;;22.50;56.20;;;;;;1562279;75;1150;-70
2022/10/09 06:47:29;;;;;;;;;;;22.50;56.10;;;;;;1569766;75;624;-73
2022/10/09 06:49:31;;;;;;;;;;;22.60;56.00;;;;;;1565933;75;829;-68
2022/10/09 06:51:33;;;;;;;;;;;22.70;55.80;;;;;;1559414;75;826;-69
2022/10/09 06:53:36;;;;;;;;;;;22.60;55.40;;;;;;1566867;75;820;-68
2022/10/09 06:55:38;;;;;;;;;;;22.50;54.90;;;;;;1555798;74;1155;-69
2022/10/09 06:57:40;;;;;;;;;;;22.50;54.60;;;;;;1565814;75;725;-68
2022/10/09 06:59:42;;;;;;;;;;;22.40;54.20;;;;;;1553361;75;792;-75
2022/10/09 07:01:43;;;;;;;;;;;22.40;53.90;;;;;;1566829;75;1916;-69
2022/10/09 07:03:46;;;;;;;;;;;22.30;53.50;;;;;;1569476;75;736;-70
2022/10/09 07:05:48;;;;;;;;;;;22.30;53.40;;;;;;1555618;74;1114;-67
2022/10/09 07:07:50;;;;;;;;;;;22.20;53.20;;;;;;1563392;75;755;-69
2022/10/09 07:09:52;;;;;;;;;;;22.20;52.80;;;;;;1546863;75;681;-70
2022/10/09 07:11:54;;;;;;;;;;;22.20;52.90;;;;;;1561044;75;806;-70
2022/10/09 07:13:56;;;;;;;;;;;22.10;52.40;;;;;;1565438;75;726;-69
2022/10/09 07:15:58;;;;;;;;;;;22.10;52.20;;;;;;1554608;74;1146;-69
2022/10/09 07:18:01;;;;;;;;;;;22.10;52.10;;;;;;1557647;75;1178;-70
2022/10/09 07:20:03;;;;;;;;;;;22.10;51.80;;;;;;1562631;75;628;-69
2022/10/09 07:22:10;;;;;;;;;;;22.10;51.90;;;;;;1556530;75;1908;-69
2022/10/09 07:24:09;;;;;;;;;;;22.10;51.80;;;;;;1553942;75;1579;-69
2022/10/09 07:26:11;;;;;;;;;;;22.00;51.50;;;;;;1567085;75;1156;-69
2022/10/09 07:28:13;;;;;;;;;;;22.00;51.60;;;;;;1565178;75;747;-70
2022/10/09 07:30:15;;;;;;;;;;;22.00;51.30;;;;;;1559935;75;754;-69
2022/10/09 07:32:17;;;;;;;;;;;22.00;51.00;;;;;;1567813;75;748;-70
2022/10/09 07:34:19;;;;;;;;;;;21.90;51.00;;;;;;1567502;75;749;-69
2022/10/09 07:36:21;;;;;;;;;;;21.90;50.50;;;;;;1567628;74;1139;-69
2022/10/09 07:38:27;;;;;;;;;;;21.90;50.60;;;;;;1569808;75;1043;-69
2022/10/09 07:40:26;;;;;;;;;;;22.00;50.50;;;;;;1571376;75;1240;-70
2022/10/09 07:42:28;;;;;;;;;;;21.90;50.60;;;;;;1564870;74;1940;-69
2022/10/09 07:44:30;;;;;;;;;;;21.80;50.30;;;;;;1574367;75;765;-69
2022/10/09 07:46:32;;;;;;;;;;;21.90;50.20;;;;;;1561707;75;1141;-69
2022/10/09 07:48:34;;;;;;;;;;;21.90;50.00;;;;;;1556838;75;777;-69
2022/10/09 07:50:36;;;;;;;;;;;21.80;49.60;;;;;;1562557;75;719;-69
2022/10/09 07:52:38;;;;;;;;;;;21.80;49.60;;;;;;1552058;75;789;-69
2022/10/09 07:54:40;;;;;;;;;;;21.80;49.40;;;;;;1566431;75;818;-69
2022/10/09 07:56:41;;;;;;;;;;;21.80;49.40;;;;;;1561211;74;1130;-69
2022/10/09 07:58:45;;;;;;;;;;;21.70;49.30;;;;;;1557986;75;707;-69
2022/10/09 08:00:47;;;;;;;;;;;21.70;49.20;;;;;;1569558;75;2056;-68
2022/10/09 08:02:49;;;;;;;;;;;21.70;49.30;;;;;;1558221;75;1947;-69
2022/10/09 08:04:51;;;;;;;;;;;21.70;49.10;;;;;;1565970;75;835;-68
2022/10/09 08:06:52;;;;;;;;;;;21.70;49.10;;;;;;1559710;75;1137;-69
2022/10/09 08:08:55;;;;;;;;;;;21.70;49.10;;;;;;1551664;75;856;-69
2022/10/09 08:10:57;;;;;;;;;;;21.70;49.00;;;;;;1552944;75;683;-68
2022/10/09 08:12:59;;;;;;;;;;;21.60;48.60;;;;;;1564606;75;783;-69
2022/10/09 08:15:00;;;;;;;;;;;21.60;48.40;;;;;;1561222;75;774;-66
2022/10/09 08:17:02;;;;;;;;;;;21.60;48.30;;;;;;1556302;74;1129;-69
2022/10/09 08:19:04;;;;;;;;;;;21.60;48.50;;;;;;1557605;75;765;-70
2022/10/09 08:21:07;;;;;;;;;;;21.60;48.50;;;;;;1566165;75;745;-69
2022/10/09 08:23:09;;;;;;;;;;;21.60;48.50;;;;;;1568842;75;1922;-69
2022/10/09 08:25:11;;;;;;;;;;;21.50;48.50;;;;;;1560932;75;770;-69
2022/10/09 08:27:13;;;;;;;;;;;21.50;48.30;;;;;;1549484;75;1116;-69
2022/10/09 08:29:15;;;;;;;;;;;21.40;46.90;;;;;;1548452;75;684;-69
2022/10/09 08:31:18;;;;;;;;;;;21.40;48.20;;;;;;1564093;75;920;-69
2022/10/09 08:33:20;;;;;;;;;;;21.30;47.70;;;;;;1567369;75;804;-69
2022/10/09 08:35:22;;;;;;;;;;;21.30;48.10;;;;;;1572484;75;780;-69
2022/10/09 08:37:24;;;;;;;;;;;21.30;47.90;;;;;;1557025;74;1191;-69
2022/10/09 08:39:29;;;;;;;;;;;21.20;47.80;;;;;;1566285;75;800;-69
2022/10/09 08:41:34;;;;;;;;;;;21.30;48.20;;;;;;1574072;75;1886;-69
2022/10/09 08:43:38;;;;;;;;;;;21.20;48.10;;;;;;1567305;75;1942;-69
2022/10/09 08:45:40;;;;;;;;;;;21.20;48.10;;;;;;1569294;75;1122;-69
2022/10/09 08:47:43;;;;;;;;;;;21.00;47.50;;;;;;1564119;75;820;-69
2022/10/09 08:49:53;;;;;;;;;;;21.00;47.50;;;;;;1528815;75;1237;-69
2022/10/09 08:51:55;;;;;;;;;;;21.00;47.30;;;;;;1570762;75;753;-69
2022/10/09 08:54:10;;;;;;;;;;;20.90;47.90;;;;;;1559263;75;795;-69
2022/10/09 08:56:13;;;;;;;;;;;20.80;48.10;;;;;;1567230;74;1169;-69
2022/10/09 08:58:16;;;;;;;;;;;20.70;48.20;;;;;;1570958;75;745;-69
2022/10/09 09:00:19;;;;;;;;;;;20.80;48.40;;;;;;1571175;75;749;-69
2022/10/09 09:02:25;;;;;;;;;;;20.80;48.30;;;;;;1586090;74;1932;-69
2022/10/09 09:04:28;;;;;;;;;;;20.80;48.10;;;;;;1556776;75;774;-69
2022/10/09 09:06:35;;;;;;;;;;;20.70;48.20;;;;;;1554534;75;1506;-69
2022/10/09 09:08:43;;;;;;;;;;;20.80;48.10;;;;;;1569981;74;1065;-69
2022/10/09 09:10:55;;;;;;;;;;;20.80;48.50;;;;;;1581687;74;825;-69
2022/10/09 09:12:58;;;;;;;;;;;20.80;48.10;;;;;;1553891;75;2362;-69
2022/10/09 09:15:11;;;;;;;;;;;20.70;46.80;;;;;;1577003;74;1825;-69
2022/10/09 09:17:20;;;;;;;;;;;20.50;47.80;;;;;;1569802;74;1921;-68
2022/10/09 09:19:26;;;;;;;;;;;20.50;48.40;;;;;;1570311;74;602;-69
2022/10/09 09:21:39;;;;;;;;;;;20.50;48.60;;;;;;1549525;75;564;-69
2022/10/09 09:23:42;;;;;;;;;;;20.50;48.80;;;;;;1587423;74;1918;-69
2022/10/09 09:25:45;;;;;;;;;;;20.50;48.90;;;;;;1565551;74;1237;-69
2022/10/09 09:27:46;;;;;;;;;;;20.50;48.90;;;;;;1591258;74;811;-69
2022/10/09 09:29:50;;;;;;;;;;;20.50;48.00;;;;;;1558356;74;805;-69
2022/10/09 09:31:53;;;;;;;;;;;20.60;48.90;;;;;;1564413;74;1510;-69
2022/10/09 09:33:59;;;;;;;;;;;20.60;48.40;;;;;;1577640;74;730;-67
2022/10/09 09:36:18;;;;;;;;;;;20.50;48.20;;;;;;1585680;74;1138;-69
2022/10/09 09:38:20;;;;;;;;;;;20.40;48.70;;;;;;1588362;74;752;-69
2022/10/09 09:40:22;;;;;;;;;;;20.40;48.30;;;;;;1563386;75;775;-69
2022/10/09 09:42:24;;;;;;;;;;;20.30;47.70;;;;;;1565511;75;1933;-69
2022/10/09 09:44:26;;;;;;;;;;;20.30;48.80;;;;;;1564096;75;781;-69
2022/10/09 09:46:28;;;;;;;;;;;20.30;48.90;;;;;;1564805;75;1147;-69
2022/10/09 09:48:32;;;;;;;;;;;20.30;48.90;;;;;;1562218;75;790;-69
2022/10/09 09:50:36;;;;;;;;;;;20.30;48.90;;;;;;1564134;75;1669;-68
2022/10/09 09:52:42;;;;;;;;;;;20.20;48.10;;;;;;1563510;75;686;-69
2022/10/09 09:54:45;;;;;;;;;;;20.20;49.20;;;;;;1561460;75;705;-69
2022/10/09 09:56:47;;;;;;;;;;;20.20;49.00;;;;;;1557878;75;1663;-69
2022/10/09 09:58:50;;;;;;;;;;;20.30;49.10;;;;;;1565001;75;808;-69
2022/10/09 10:00:55;;;;;;;;;;;20.30;49.20;;;;;;1558773;75;810;-68
2022/10/09 10:03:04;;;;;;;;;;;20.30;49.20;;;;;;1574208;75;1909;-69
2022/10/09 10:05:08;;;;;;;;;;;20.40;49.10;;;;;;1559901;75;771;-69
2022/10/09 10:07:09;;;;;;;;;;;20.40;49.00;;;;;;1562012;75;1812;-69
2022/10/09 10:09:13;;;;;;;;;;;20.40;49.20;;;;;;1552051;75;802;-69
2022/10/09 10:11:15;;;;;;;;;;;20.40;48.70;;;;;;1550467;75;1191;-69
2022/10/09 10:13:21;;;;;;;;;;;20.40;48.80;;;;;;1557512;75;811;-69
2022/10/09 10:15:26;;;;;;;;;;;20.40;49.10;;;;;;1567352;75;802;-69
2022/10/09 10:17:29;;;;;;;;;;;20.30;49.10;;;;;;1551336;75;817;-67
2022/10/09 10:19:34;;;;;;;;;;;20.40;49.30;;;;;;1546889;75;791;-69
2022/10/09 10:21:41;;;;;;;;;;;20.40;49.10;;;;;;1560653;75;1744;-69
2022/10/09 10:23:50;;;;;;;;;;;20.40;49.20;;;;;;1529784;76;1943;-69
2022/10/09 10:25:52;;;;;;;;;;;20.40;48.90;;;;;;1562795;75;1166;-68
2022/10/09 10:27:58;;;;;;;;;;;20.50;48.80;;;;;;1555479;75;813;-69
2022/10/09 10:30:01;;;;;;;;;;;20.50;49.40;;;;;;1567718;75;611;-70
2022/10/09 10:32:08;;;;;;;;;;;20.40;49.30;;;;;;1557069;75;1268;-69
2022/10/09 10:34:11;;;;;;;;;;;20.50;49.00;;;;;;1543972;76;1150;-69
2022/10/09 10:36:13;;;;;;;;;;;20.40;49.20;;;;;;1559598;74;1533;-69
2022/10/09 10:38:23;;;;;;;;;;;20.30;49.20;;;;;;1556880;75;669;-68
2022/10/09 10:40:29;;;;;;;;;;;20.40;49.00;;;;;;1543037;75;854;-68
2022/10/09 10:42:32;;;;;;;;;;;20.20;49.20;;;;;;1555869;75;714;-69
2022/10/09 10:44:36;;;;;;;;;;;20.20;49.00;;;;;;1558613;75;1952;-69
2022/10/09 10:46:39;;;;;;;;;;;20.30;49.30;;;;;;1567525;75;1156;-70
2022/10/09 10:48:47;;;;;;;;;;;20.30;48.90;;;;;;1566267;75;715;-69
2022/10/09 10:50:59;;;;;;;;;;;20.20;49.30;;;;;;1566405;75;681;-69
2022/10/09 10:53:03;;;;;;;;;;;20.20;49.30;;;;;;1553261;75;2007;-69
2022/10/09 10:55:09;;;;;;;;;;;20.10;49.40;;;;;;1544765;75;711;-69
2022/10/09 10:57:13;;;;;;;;;;;20.20;49.40;;;;;;1563130;74;1139;-67
2022/10/09 10:59:25;;;;;;;;;;;20.30;49.50;;;;;;1552318;75;1843;-68
2022/10/09 11:01:45;;;;;;;;;;;20.30;49.50;;;;;;1566685;75;1975;-69
2022/10/09 11:03:51;;;;;;;;;;;20.30;49.00;;;;;;1562231;75;1915;-69
2022/10/09 11:05:55;;;;;;;;;;;20.30;49.40;;;;;;1566290;74;1155;-70
2022/10/09 11:07:58;;;;;;;;;;;20.20;49.40;;;;;;1552349;75;1852;-69
2022/10/09 11:10:17;;;;;;;;;;;20.30;49.60;;;;;;1546290;75;703;-69
2022/10/09 11:12:20;;;;;;;;;;;20.30;49.60;;;;;;1550826;75;1611;-69
2022/10/09 11:14:33;;;;;;;;;;;20.40;49.40;;;;;;1555116;75;712;-70
2022/10/09 11:16:39;;;;;;;;;;;20.10;48.80;;;;;;1558558;74;1759;-70
2022/10/09 11:18:48;;;;;;;;;;;20.20;49.60;;;;;;1549913;75;2087;-70
2022/10/09 11:20:58;;;;;;;;;;;20.20;49.80;;;;;;1547538;75;1949;-70
2022/10/09 11:23:07;;;;;;;;;;;20.10;49.70;;;;;;1556364;75;1931;-70
2022/10/09 11:25:17;;;;;;;;;;;20.10;50.00;;;;;;1552149;75;1939;-70
2022/10/09 11:27:19;;;;;;;;;;;20.10;49.60;;;;;;1566313;75;1947;-70
2022/10/09 11:29:23;;;;;;;;;;;20.00;49.60;;;;;;1570086;75;803;-70
2022/10/09 11:31:29;;;;;;;;;;;20.10;49.80;;;;;;1561948;74;1624;-67
2022/10/09 11:33:38;;;;;;;;;;;20.00;49.00;;;;;;1584653;74;722;-68
2022/10/09 11:35:42;;;;;;;;;;;19.90;49.60;;;;;;1587423;74;1147;-68
2022/10/09 11:37:45;;;;;;;;;;;19.80;48.50;;;;;;1556690;75;672;-67
2022/10/09 11:39:47;;;;;;;;;;;19.80;49.90;;;;;;1544987;75;1989;-68
2022/10/09 11:41:50;;;;;;;;;;;19.90;49.40;;;;;;1573491;74;733;-68
2022/10/09 11:44:02;;;;;;;;;;;19.90;49.40;;;;;;1534246;75;1948;-67
2022/10/09 11:46:05;;;;;;;;;;;19.70;49.20;;;;;;1577445;74;1150;-68
2022/10/09 11:48:18;;;;;;;;;;;19.60;49.80;;;;;;1553288;74;1720;-68
2022/10/09 11:50:28;;;;;;;;;;;19.70;50.10;;;;;;1567400;74;760;-68
2022/10/09 11:52:40;;;;;;;;;;;19.70;49.70;;;;;;1568418;74;1717;-68
2022/10/09 11:54:42;;;;;;;;;;;19.70;49.60;;;;;;1572319;74;780;-67
2022/10/09 11:56:57;;;;;;;;;;;19.60;49.70;;;;;;1591879;74;1146;-67
2022/10/09 11:59:00;;;;;;;;;;;19.60;49.90;;;;;;1572959;74;821;-68
2022/10/09 12:01:04;;;;;;;;;;;19.60;50.00;;;;;;1583162;74;1698;-68
2022/10/09 12:03:05;;;;;;;;;;;19.60;50.20;;;;;;1568081;74;1937;-68
2022/10/09 12:05:21;;;;;;;;;;;19.60;50.70;;;;;;1576979;74;756;-67
2022/10/09 12:07:27;;;;;;;;;;;19.60;50.00;;;;;;1515117;74;1186;-68
2022/10/09 12:09:30;;;;;;;;;;;19.60;50.50;;;;;;1574784;74;798;-68
2022/10/09 12:11:32;;;;;;;;;;;19.70;50.40;;;;;;1585488;74;740;-68
2022/10/09 12:13:39;;;;;;;;;;;19.70;50.50;;;;;;1587903;74;712;-68
2022/10/09 12:15:46;;;;;;;;;;;19.80;50.30;;;;;;1575688;74;1163;-66
2022/10/09 12:17:48;;;;;;;;;;;19.80;50.20;;;;;;1569168;74;1191;-68